sensor_id;sensor_type;location;lat;lon;timestamp;temperature;humidity
20366;DHT22;10341;49.894;8.822;2023-02-01T00:00:42;5.60;99.90
20366;DHT22;10341;49.894;8.822;2023-02-01T00:06:02;5.60;99.90
20366;DHT22;10341;49.894;8.822;2023-02-01T00:11:23;5.60;99.90
20366;DHT22;10341;49.894;8.822;2023-02-01T00:16:43;5.60;99.90
20366;DHT22;10341;49.894;8.822;2023-02-01T00:22:02;5.70;99.90
20366;DHT22;10341;49.894;8.822;2023-02-01T00:27:22;5.70;99.90
20366;DHT22;10341;49.894;8.822;2023-02-01T00:32:41;5.70;99.90
20366;DHT22;10341;49.894;8.822;2023-02-01T00:38:01;5.70;99.90
20366;DHT22;10341;49.894;8.822;2023-02-01T00:43:21;5.70;99.90
20366;DHT22;10341;49.894;8.822;2023-02-01T00:48:41;5.70;99.90
20366;DHT22;10341;49.894;8.822;2023-02-01T00:54:00;5.70;99.90
20366;DHT22;10341;49.894;8.822;2023-02-01T00:59:20;5.60;99.90
20366;DHT22;10341;49.894;8.822;2023-02-01T01:04:40;5.60;99.90
20366;DHT22;10341;49.894;8.822;2023-02-01T01:09:59;5.50;99.90
20366;DHT22;10341;49.894;8.822;2023-02-01T01:15:19;5.50;99.90
20366;DHT22;10341;49.894;8.822;2023-02-01T01:20:41;5.50;99.90
20366;DHT22;10341;49.894;8.822;2023-02-01T01:26:00;5.50;99.90
20366;DHT22;10341;49.894;8.822;2023-02-01T01:31:23;5.50;99.90
20366;DHT22;10341;49.894;8.822;2023-02-01T01:36:43;5.50;99.90
20366;DHT22;10341;49.894;8.822;2023-02-01T01:42:03;5.60;99.90
20366;DHT22;10341;49.894;8.822;2023-02-01T01:47:23;5.70;99.90
20366;DHT22;10341;49.894;8.822;2023-02-01T01:52:44;5.70;99.90
20366;DHT22;10341;49.894;8.822;2023-02-01T01:58:09;5.70;99.90
20366;DHT22;10341;49.894;8.822;2023-02-01T02:03:41;5.70;99.90
20366;DHT22;10341;49.894;8.822;2023-02-01T02:09:01;5.70;99.90
20366;DHT22;10341;49.894;8.822;2023-02-01T02:14:22;5.60;99.90
20366;DHT22;10341;49.894;8.822;2023-02-01T02:26:00;5.60;99.90
20366;DHT22;10341;49.894;8.822;2023-02-01T02:37:21;5.60;99.90
20366;DHT22;10341;49.894;8.822;2023-02-01T02:43:05;5.60;99.90
20366;DHT22;10341;49.894;8.822;2023-02-01T02:48:55;5.60;99.90
20366;DHT22;10341;49.894;8.822;2023-02-01T02:54:28;5.60;99.90
20366;DHT22;10341;49.894;8.822;2023-02-01T03:00:14;5.50;99.90
20366;DHT22;10341;49.894;8.822;2023-02-01T03:05:52;5.60;99.90
20366;DHT22;10341;49.894;8.822;2023-02-01T03:11:14;5.50;99.90
20366;DHT22;10341;49.894;8.822;2023-02-01T03:16:43;5.40;99.90
20366;DHT22;10341;49.894;8.822;2023-02-01T03:22:11;5.20;99.90
20366;DHT22;10341;49.894;8.822;2023-02-01T03:28:00;5.30;99.90
20366;DHT22;10341;49.894;8.822;2023-02-01T03:33:25;5.30;99.90
20366;DHT22;10341;49.894;8.822;2023-02-01T03:39:01;5.40;99.90
20366;DHT22;10341;49.894;8.822;2023-02-01T03:44:35;5.40;99.90
20366;DHT22;10341;49.894;8.822;2023-02-01T03:50:00;5.40;99.90
20366;DHT22;10341;49.894;8.822;2023-02-01T03:55:23;5.40;99.90
20366;DHT22;10341;49.894;8.822;2023-02-01T04:06:10;5.40;99.90
20366;DHT22;10341;49.894;8.822;2023-02-01T04:11:30;5.40;99.90
20366;DHT22;10341;49.894;8.822;2023-02-01T04:16:49;5.40;99.90
20366;DHT22;10341;49.894;8.822;2023-02-01T04:22:09;5.40;99.90
20366;DHT22;10341;49.894;8.822;2023-02-01T04:27:29;5.40;99.90
20366;DHT22;10341;49.894;8.822;2023-02-01T04:32:48;5.50;99.90
20366;DHT22;10341;49.894;8.822;2023-02-01T04:38:07;5.50;99.90
20366;DHT22;10341;49.894;8.822;2023-02-01T04:43:27;5.50;99.90
20366;DHT22;10341;49.894;8.822;2023-02-01T04:48:46;5.50;99.90
20366;DHT22;10341;49.894;8.822;2023-02-01T04:54:06;5.60;99.90
20366;DHT22;10341;49.894;8.822;2023-02-01T04:59:26;5.60;99.90
20366;DHT22;10341;49.894;8.822;2023-02-01T05:04:46;5.60;99.90
20366;DHT22;10341;49.894;8.822;2023-02-01T05:10:06;5.60;99.90
20366;DHT22;10341;49.894;8.822;2023-02-01T05:15:25;5.60;99.90
20366;DHT22;10341;49.894;8.822;2023-02-01T05:20:44;5.60;99.90
20366;DHT22;10341;49.894;8.822;2023-02-01T05:26:05;5.60;99.90
20366;DHT22;10341;49.894;8.822;2023-02-01T05:31:24;5.60;99.90
20366;DHT22;10341;49.894;8.822;2023-02-01T05:36:43;5.60;99.90
20366;DHT22;10341;49.894;8.822;2023-02-01T05:42:03;5.60;99.90
20366;DHT22;10341;49.894;8.822;2023-02-01T05:47:23;5.60;99.90
20366;DHT22;10341;49.894;8.822;2023-02-01T05:52:42;5.60;99.90
20366;DHT22;10341;49.894;8.822;2023-02-01T05:58:02;5.60;99.90
20366;DHT22;10341;49.894;8.822;2023-02-01T06:03:21;5.60;99.90
20366;DHT22;10341;49.894;8.822;2023-02-01T06:08:41;5.60;99.90
20366;DHT22;10341;49.894;8.822;2023-02-01T06:14:01;5.60;99.90
20366;DHT22;10341;49.894;8.822;2023-02-01T06:19:21;5.60;99.90
20366;DHT22;10341;49.894;8.822;2023-02-01T06:24:40;5.60;99.90
20366;DHT22;10341;49.894;8.822;2023-02-01T06:30:00;5.60;99.90
20366;DHT22;10341;49.894;8.822;2023-02-01T06:35:21;5.50;99.90
20366;DHT22;10341;49.894;8.822;2023-02-01T06:40:40;5.40;99.90
20366;DHT22;10341;49.894;8.822;2023-02-01T06:46:03;5.50;99.90
20366;DHT22;10341;49.894;8.822;2023-02-01T06:51:25;5.60;99.90
20366;DHT22;10341;49.894;8.822;2023-02-01T06:56:44;5.50;99.90
20366;DHT22;10341;49.894;8.822;2023-02-01T07:02:04;5.40;99.90
20366;DHT22;10341;49.894;8.822;2023-02-01T07:07:24;5.30;99.90
20366;DHT22;10341;49.894;8.822;2023-02-01T07:12:43;5.30;99.90
20366;DHT22;10341;49.894;8.822;2023-02-01T07:18:03;5.30;99.90
20366;DHT22;10341;49.894;8.822;2023-02-01T07:23:23;5.20;99.90
20366;DHT22;10341;49.894;8.822;2023-02-01T07:28:43;5.20;99.90
20366;DHT22;10341;49.894;8.822;2023-02-01T07:34:02;5.10;99.90
20366;DHT22;10341;49.894;8.822;2023-02-01T07:39:22;5.10;99.90
20366;DHT22;10341;49.894;8.822;2023-02-01T07:44:41;5.50;99.90
20366;DHT22;10341;49.894;8.822;2023-02-01T07:50:01;5.90;99.90
20366;DHT22;10341;49.894;8.822;2023-02-01T07:55:21;6.70;99.90
20366;DHT22;10341;49.894;8.822;2023-02-01T08:00:40;7.00;99.90
20366;DHT22;10341;49.894;8.822;2023-02-01T08:06:19;7.60;99.90
20366;DHT22;10341;49.894;8.822;2023-02-01T08:11:39;8.10;99.90
20366;DHT22;10341;49.894;8.822;2023-02-01T08:16:59;8.50;99.90
20366;DHT22;10341;49.894;8.822;2023-02-01T08:22:18;9.30;99.90
20366;DHT22;10341;49.894;8.822;2023-02-01T08:27:38;9.80;99.90
20366;DHT22;10341;49.894;8.822;2023-02-01T08:32:58;10.30;99.90
20366;DHT22;10341;49.894;8.822;2023-02-01T08:38:17;10.00;99.90
20366;DHT22;10341;49.894;8.822;2023-02-01T08:43:37;9.90;99.90
20366;DHT22;10341;49.894;8.822;2023-02-01T08:48:56;9.60;99.90
20366;DHT22;10341;49.894;8.822;2023-02-01T08:54:16;8.50;99.90
20366;DHT22;10341;49.894;8.822;2023-02-01T08:59:36;8.50;99.90
20366;DHT22;10341;49.894;8.822;2023-02-01T09:04:56;8.90;99.90
20366;DHT22;10341;49.894;8.822;2023-02-01T09:10:16;8.70;99.90
20366;DHT22;10341;49.894;8.822;2023-02-01T09:15:35;8.90;99.90
20366;DHT22;10341;49.894;8.822;2023-02-01T09:20:56;9.80;99.90
20366;DHT22;10341;49.894;8.822;2023-02-01T09:26:15;10.20;99.90
20366;DHT22;10341;49.894;8.822;2023-02-01T09:31:35;10.20;99.90
20366;DHT22;10341;49.894;8.822;2023-02-01T09:36:54;9.40;99.90
20366;DHT22;10341;49.894;8.822;2023-02-01T09:47:43;8.00;99.90
20366;DHT22;10341;49.894;8.822;2023-02-01T10:04:37;7.40;99.90
20366;DHT22;10341;49.894;8.822;2023-02-01T10:10:27;7.30;99.90
20366;DHT22;10341;49.894;8.822;2023-02-01T10:16:06;7.40;99.90
20366;DHT22;10341;49.894;8.822;2023-02-01T10:21:54;7.40;99.90
20366;DHT22;10341;49.894;8.822;2023-02-01T10:27:19;7.50;99.90
20366;DHT22;10341;49.894;8.822;2023-02-01T10:32:39;7.40;99.90
20366;DHT22;10341;49.894;8.822;2023-02-01T10:38:01;7.60;99.90
20366;DHT22;10341;49.894;8.822;2023-02-01T10:43:21;7.90;99.90
20366;DHT22;10341;49.894;8.822;2023-02-01T10:48:41;8.40;99.90
20366;DHT22;10341;49.894;8.822;2023-02-01T10:54:16;8.30;99.90
20366;DHT22;10341;49.894;8.822;2023-02-01T10:59:35;8.20;99.90
20366;DHT22;10341;49.894;8.822;2023-02-01T11:05:04;7.90;99.90
20366;DHT22;10341;49.894;8.822;2023-02-01T11:10:39;7.70;99.90
20366;DHT22;10341;49.894;8.822;2023-02-01T11:16:02;7.70;99.90
20366;DHT22;10341;49.894;8.822;2023-02-01T11:21:22;7.90;99.90
20366;DHT22;10341;49.894;8.822;2023-02-01T11:26:42;7.90;99.90
20366;DHT22;10341;49.894;8.822;2023-02-01T11:32:02;7.80;99.90
20366;DHT22;10341;49.894;8.822;2023-02-01T11:37:26;7.60;99.90
20366;DHT22;10341;49.894;8.822;2023-02-01T11:43:13;7.60;99.90
20366;DHT22;10341;49.894;8.822;2023-02-01T11:48:33;7.50;99.90
20366;DHT22;10341;49.894;8.822;2023-02-01T11:54:20;7.50;99.90
20366;DHT22;10341;49.894;8.822;2023-02-01T12:28:55;7.50;99.90
20366;DHT22;10341;49.894;8.822;2023-02-01T12:35:12;7.60;99.90
20366;DHT22;10341;49.894;8.822;2023-02-01T12:46:06;7.50;99.90
20366;DHT22;10341;49.894;8.822;2023-02-01T12:51:35;7.50;99.90
20366;DHT22;10341;49.894;8.822;2023-02-01T12:57:09;7.50;99.90
20366;DHT22;10341;49.894;8.822;2023-02-01T13:02:54;7.50;99.90
20366;DHT22;10341;49.894;8.822;2023-02-01T13:08:21;7.50;99.90
20366;DHT22;10341;49.894;8.822;2023-02-01T13:13:56;7.50;99.90
20366;DHT22;10341;49.894;8.822;2023-02-01T13:19:56;7.50;99.90
20366;DHT22;10341;49.894;8.822;2023-02-01T13:25:37;7.50;99.90
20366;DHT22;10341;49.894;8.822;2023-02-01T13:42:31;7.40;99.90
20366;DHT22;10341;49.894;8.822;2023-02-01T13:47:55;7.40;99.90
20366;DHT22;10341;49.894;8.822;2023-02-01T13:53:18;7.50;99.90
20366;DHT22;10341;49.894;8.822;2023-02-01T13:58:41;7.40;99.90
20366;DHT22;10341;49.894;8.822;2023-02-01T14:04:03;7.40;99.90
20366;DHT22;10341;49.894;8.822;2023-02-01T14:09:35;7.60;99.90
20366;DHT22;10341;49.894;8.822;2023-02-01T14:15:18;7.60;99.90
20366;DHT22;10341;49.894;8.822;2023-02-01T14:20:45;7.70;99.90
20366;DHT22;10341;49.894;8.822;2023-02-01T14:26:10;7.70;99.90
20366;DHT22;10341;49.894;8.822;2023-02-01T14:37:10;7.70;99.90
20366;DHT22;10341;49.894;8.822;2023-02-01T14:53:33;7.60;99.90
20366;DHT22;10341;49.894;8.822;2023-02-01T14:59:00;7.60;99.90
20366;DHT22;10341;49.894;8.822;2023-02-01T15:04:25;7.50;99.90
20366;DHT22;10341;49.894;8.822;2023-02-01T15:09:46;7.50;99.90
20366;DHT22;10341;49.894;8.822;2023-02-01T15:20:37;7.40;99.90
20366;DHT22;10341;49.894;8.822;2023-02-01T15:25:57;7.40;99.90
20366;DHT22;10341;49.894;8.822;2023-02-01T15:31:35;7.40;99.90
20366;DHT22;10341;49.894;8.822;2023-02-01T15:37:04;7.40;99.90
20366;DHT22;10341;49.894;8.822;2023-02-01T15:42:24;7.40;99.90
20366;DHT22;10341;49.894;8.822;2023-02-01T15:47:47;7.40;99.90
20366;DHT22;10341;49.894;8.822;2023-02-01T15:53:15;7.40;99.90
20366;DHT22;10341;49.894;8.822;2023-02-01T15:58:42;7.40;99.90
20366;DHT22;10341;49.894;8.822;2023-02-01T16:04:23;7.40;99.90
20366;DHT22;10341;49.894;8.822;2023-02-01T16:09:52;7.40;99.90
20366;DHT22;10341;49.894;8.822;2023-02-01T16:15:11;7.40;99.90
20366;DHT22;10341;49.894;8.822;2023-02-01T16:20:31;7.50;99.90
20366;DHT22;10341;49.894;8.822;2023-02-01T16:25:52;7.50;99.90
20366;DHT22;10341;49.894;8.822;2023-02-01T16:31:12;7.40;99.90
20366;DHT22;10341;49.894;8.822;2023-02-01T16:36:37;7.40;99.90
20366;DHT22;10341;49.894;8.822;2023-02-01T16:41:57;7.40;99.90
20366;DHT22;10341;49.894;8.822;2023-02-01T16:47:20;7.50;99.90
20366;DHT22;10341;49.894;8.822;2023-02-01T16:52:40;7.40;99.90
20366;DHT22;10341;49.894;8.822;2023-02-01T16:57:59;7.30;99.90
20366;DHT22;10341;49.894;8.822;2023-02-01T17:03:19;7.40;99.90
20366;DHT22;10341;49.894;8.822;2023-02-01T17:08:41;7.30;99.90
20366;DHT22;10341;49.894;8.822;2023-02-01T17:14:11;7.30;99.90
20366;DHT22;10341;49.894;8.822;2023-02-01T17:19:32;7.20;99.90
20366;DHT22;10341;49.894;8.822;2023-02-01T17:24:51;7.20;99.90
20366;DHT22;10341;49.894;8.822;2023-02-01T17:30:11;7.20;99.90
20366;DHT22;10341;49.894;8.822;2023-02-01T17:35:31;7.20;99.90
20366;DHT22;10341;49.894;8.822;2023-02-01T17:40:50;7.20;99.90
20366;DHT22;10341;49.894;8.822;2023-02-01T17:51:30;7.20;99.90
20366;DHT22;10341;49.894;8.822;2023-02-01T17:56:49;7.10;99.90
20366;DHT22;10341;49.894;8.822;2023-02-01T18:02:21;7.10;99.90
20366;DHT22;10341;49.894;8.822;2023-02-01T18:07:41;7.10;99.90
20366;DHT22;10341;49.894;8.822;2023-02-01T18:13:01;7.10;99.90
20366;DHT22;10341;49.894;8.822;2023-02-01T18:18:21;7.10;99.90
20366;DHT22;10341;49.894;8.822;2023-02-01T18:23:40;7.20;99.90
20366;DHT22;10341;49.894;8.822;2023-02-01T18:28:59;7.10;99.90
20366;DHT22;10341;49.894;8.822;2023-02-01T18:34:19;7.10;99.90
20366;DHT22;10341;49.894;8.822;2023-02-01T18:39:43;7.10;99.90
20366;DHT22;10341;49.894;8.822;2023-02-01T18:45:02;7.10;99.90
20366;DHT22;10341;49.894;8.822;2023-02-01T18:50:22;7.10;99.90
20366;DHT22;10341;49.894;8.822;2023-02-01T18:55:41;7.00;99.90
20366;DHT22;10341;49.894;8.822;2023-02-01T19:01:04;7.00;99.90
20366;DHT22;10341;49.894;8.822;2023-02-01T19:06:23;7.00;99.90
20366;DHT22;10341;49.894;8.822;2023-02-01T19:11:44;7.10;99.90
20366;DHT22;10341;49.894;8.822;2023-02-01T19:17:03;7.10;99.90
20366;DHT22;10341;49.894;8.822;2023-02-01T19:22:23;7.10;99.90
20366;DHT22;10341;49.894;8.822;2023-02-01T19:27:43;7.10;99.90
20366;DHT22;10341;49.894;8.822;2023-02-01T19:33:02;7.10;99.90
20366;DHT22;10341;49.894;8.822;2023-02-01T19:38:22;7.10;99.90
20366;DHT22;10341;49.894;8.822;2023-02-01T19:43:42;7.10;99.90
20366;DHT22;10341;49.894;8.822;2023-02-01T19:49:02;7.10;99.90
20366;DHT22;10341;49.894;8.822;2023-02-01T19:54:22;7.20;99.90
20366;DHT22;10341;49.894;8.822;2023-02-01T19:59:41;7.20;99.90
20366;DHT22;10341;49.894;8.822;2023-02-01T20:05:00;7.20;99.90
20366;DHT22;10341;49.894;8.822;2023-02-01T20:10:19;7.10;99.90
20366;DHT22;10341;49.894;8.822;2023-02-01T20:15:39;7.00;99.90
20366;DHT22;10341;49.894;8.822;2023-02-01T20:21:01;6.90;99.90
20366;DHT22;10341;49.894;8.822;2023-02-01T20:26:20;7.00;99.90
20366;DHT22;10341;49.894;8.822;2023-02-01T20:31:43;7.00;99.90
20366;DHT22;10341;49.894;8.822;2023-02-01T20:37:03;7.00;99.90
20366;DHT22;10341;49.894;8.822;2023-02-01T20:42:23;7.00;99.90
20366;DHT22;10341;49.894;8.822;2023-02-01T20:47:42;7.10;99.90
20366;DHT22;10341;49.894;8.822;2023-02-01T20:53:02;7.10;99.90
20366;DHT22;10341;49.894;8.822;2023-02-01T20:58:21;7.10;99.90
20366;DHT22;10341;49.894;8.822;2023-02-01T21:03:41;7.10;99.90
20366;DHT22;10341;49.894;8.822;2023-02-01T21:09:00;7.10;99.90
20366;DHT22;10341;49.894;8.822;2023-02-01T21:14:19;7.00;99.90
20366;DHT22;10341;49.894;8.822;2023-02-01T21:19:39;7.00;99.90
20366;DHT22;10341;49.894;8.822;2023-02-01T21:25:01;7.10;99.90
20366;DHT22;10341;49.894;8.822;2023-02-01T21:30:20;7.10;99.90
20366;DHT22;10341;49.894;8.822;2023-02-01T21:35:40;7.10;99.90
20366;DHT22;10341;49.894;8.822;2023-02-01T21:41:00;7.20;99.90
20366;DHT22;10341;49.894;8.822;2023-02-01T21:46:37;7.30;99.90
20366;DHT22;10341;49.894;8.822;2023-02-01T21:51:56;7.30;99.90
20366;DHT22;10341;49.894;8.822;2023-02-01T21:57:16;7.30;99.90
20366;DHT22;10341;49.894;8.822;2023-02-01T22:02:35;7.30;99.90
20366;DHT22;10341;49.894;8.822;2023-02-01T22:07:54;7.30;99.90
20366;DHT22;10341;49.894;8.822;2023-02-01T22:13:14;7.30;99.90
20366;DHT22;10341;49.894;8.822;2023-02-01T22:18:33;7.30;99.90
20366;DHT22;10341;49.894;8.822;2023-02-01T22:23:52;7.30;99.90
20366;DHT22;10341;49.894;8.822;2023-02-01T22:29:12;7.40;99.90
20366;DHT22;10341;49.894;8.822;2023-02-01T22:34:32;7.40;99.90
20366;DHT22;10341;49.894;8.822;2023-02-01T22:39:51;7.40;99.90
20366;DHT22;10341;49.894;8.822;2023-02-01T22:45:13;7.40;99.90
20366;DHT22;10341;49.894;8.822;2023-02-01T22:50:32;7.50;99.90
20366;DHT22;10341;49.894;8.822;2023-02-01T22:55:51;7.50;99.90
20366;DHT22;10341;49.894;8.822;2023-02-01T23:01:11;7.50;99.90
20366;DHT22;10341;49.894;8.822;2023-02-01T23:06:31;7.50;99.90
20366;DHT22;10341;49.894;8.822;2023-02-01T23:11:52;7.50;99.90
20366;DHT22;10341;49.894;8.822;2023-02-01T23:17:11;7.50;99.90
20366;DHT22;10341;49.894;8.822;2023-02-01T23:22:30;7.40;99.90
20366;DHT22;10341;49.894;8.822;2023-02-01T23:27:50;7.30;99.90
20366;DHT22;10341;49.894;8.822;2023-02-01T23:33:09;7.00;99.90
20366;DHT22;10341;49.894;8.822;2023-02-01T23:38:28;6.80;99.90
20366;DHT22;10341;49.894;8.822;2023-02-01T23:43:47;6.70;99.90
20366;DHT22;10341;49.894;8.822;2023-02-01T23:49:16;6.60;99.90
20366;DHT22;10341;49.894;8.822;2023-02-01T23:54:35;6.50;99.90
20366;DHT22;10341;49.894;8.822;2023-02-01T23:59:54;6.50;99.90
